createdAt,value
2022-08-08T00:01:00.014Z,19.66
2022-08-08T00:02:33.212Z,19.61
2022-08-08T00:05:09.419Z,19.56
2022-08-08T00:07:45.100Z,19.50
2022-08-08T00:10:18.518Z,19.56
2022-08-08T00:13:06.146Z,19.46
2022-08-08T00:15:57.407Z,19.45
2022-08-08T00:18:36.616Z,19.36
2022-08-08T00:21:07.747Z,19.27
2022-08-08T00:23:47.735Z,19.26
2022-08-08T00:26:29.705Z,19.25
2022-08-08T00:29:08.187Z,19.19
2022-08-08T00:32:21.136Z,19.22
2022-08-08T00:35:07.667Z,19.17
2022-08-08T00:37:57.092Z,19.10
2022-08-08T00:41:10.698Z,19.00
2022-08-08T00:44:15.375Z,19.01
2022-08-08T00:47:14.116Z,18.97
2022-08-08T00:50:34.232Z,18.92
2022-08-08T00:53:15.811Z,18.81
2022-08-08T00:56:19.926Z,18.74
2022-08-08T00:59:44.306Z,18.75
2022-08-08T01:04:01.425Z,18.67
2022-08-08T01:06:38.681Z,18.57
2022-08-08T01:09:48.574Z,18.59
2022-08-08T01:12:45.759Z,18.49
2022-08-08T01:15:47.327Z,18.47
2022-08-08T01:18:56.501Z,18.45
2022-08-08T01:22:15.602Z,18.42
2022-08-08T01:25:05.092Z,18.38
2022-08-08T01:28:02.103Z,18.35
2022-08-08T01:31:06.027Z,18.36
2022-08-08T01:34:36.796Z,18.28
2022-08-08T01:37:56.693Z,18.31
2022-08-08T01:40:38.114Z,18.27
2022-08-08T01:43:14.994Z,18.19
2022-08-08T01:45:58.379Z,18.20
2022-08-08T01:48:53.442Z,18.10
2022-08-08T01:52:33.441Z,18.16
2022-08-08T01:55:26.621Z,18.09
2022-08-08T01:58:10.711Z,18.12
2022-08-08T02:00:48.470Z,18.01
2022-08-08T02:03:55.311Z,17.97
2022-08-08T02:06:32.469Z,17.82
2022-08-08T02:10:02.581Z,17.81
2022-08-08T02:12:19.643Z,17.80
2022-08-08T02:14:59.050Z,17.71
2022-08-08T02:17:42.936Z,17.63
2022-08-08T02:21:00.912Z,17.64
2022-08-08T02:23:31.843Z,17.62
2022-08-08T02:26:11.034Z,17.47
2022-08-08T02:28:55.186Z,17.43
2022-08-08T02:31:59.344Z,17.43
2022-08-08T02:35:08.392Z,17.45
2022-08-08T02:38:25.397Z,17.38
2022-08-08T02:41:59.157Z,17.32
2022-08-08T02:44:56.911Z,17.24
2022-08-08T02:47:58.967Z,17.22
2022-08-08T02:50:55.686Z,17.29
2022-08-08T02:53:50.868Z,17.24
2022-08-08T02:56:57.682Z,17.17
2022-08-08T03:00:26.706Z,17.09
2022-08-08T03:05:01.699Z,17.03
2022-08-08T03:07:25.035Z,17.01
2022-08-08T03:10:33.051Z,16.99
2022-08-08T03:15:57.286Z,16.90
2022-08-08T03:16:44.190Z,16.84
2022-08-08T03:19:29.781Z,16.86
2022-08-08T03:21:59.822Z,16.78
2022-08-08T03:24:31.877Z,16.84
2022-08-08T03:27:21.741Z,16.83
2022-08-08T03:30:03.079Z,16.83
2022-08-08T03:32:56.906Z,16.76
2022-08-08T03:35:30.334Z,16.71
2022-08-08T03:38:53.688Z,16.70
2022-08-08T03:40:56.853Z,16.78
2022-08-08T03:43:28.695Z,16.79
2022-08-08T03:46:09.088Z,16.69
2022-08-08T03:49:56.677Z,16.66
2022-08-08T03:51:50.545Z,16.58
2022-08-08T03:54:51.680Z,16.54
2022-08-08T03:58:30.012Z,16.55
2022-08-08T04:00:07.683Z,16.59
2022-08-08T04:02:46.918Z,16.53
2022-08-08T04:05:19.532Z,16.57
2022-08-08T04:07:58.355Z,16.57
2022-08-08T04:10:31.928Z,16.59
2022-08-08T04:13:17.586Z,16.56
2022-08-08T04:15:54.871Z,16.58
2022-08-08T04:18:41.805Z,16.62
2022-08-08T04:21:11.657Z,16.60
2022-08-08T04:24:11.684Z,16.57
2022-08-08T04:26:40.036Z,16.55
2022-08-08T04:29:20.623Z,16.55
2022-08-08T04:31:59.743Z,16.53
2022-08-08T04:34:32.455Z,16.53
2022-08-08T04:37:17.563Z,16.60
2022-08-08T04:40:04.127Z,16.60
2022-08-08T04:42:46.689Z,16.61
2022-08-08T04:45:28.952Z,16.66
2022-08-08T04:48:00.488Z,16.67
2022-08-08T04:50:38.678Z,16.74
2022-08-08T04:53:52.098Z,16.77
2022-08-08T04:55:59.680Z,16.92
2022-08-08T04:58:31.627Z,17.01
2022-08-08T05:01:08.763Z,17.09
2022-08-08T05:04:09.780Z,17.13
2022-08-08T05:06:29.305Z,17.19
2022-08-08T05:09:02.442Z,17.22
2022-08-08T05:11:38.784Z,17.30
2022-08-08T05:14:08.260Z,17.36
2022-08-08T05:16:55.526Z,17.38
2022-08-08T05:20:09.784Z,17.41
2022-08-08T05:22:17.587Z,17.44
2022-08-08T05:24:49.338Z,17.48
2022-08-08T05:27:21.589Z,17.54
2022-08-08T05:29:51.807Z,17.59
2022-08-08T05:32:27.416Z,17.67
2022-08-08T05:35:04.447Z,17.72
2022-08-08T05:37:51.890Z,17.70
2022-08-08T05:40:28.765Z,17.82
2022-08-08T05:43:38.474Z,17.86
2022-08-08T05:46:03.757Z,17.88
2022-08-08T05:48:37.726Z,17.85
2022-08-08T05:51:14.689Z,17.94
2022-08-08T05:54:25.036Z,17.93
2022-08-08T05:56:42.293Z,17.88
2022-08-08T05:59:52.325Z,17.95
2022-08-08T06:02:34.695Z,18.02
2022-08-08T06:05:06.890Z,18.03
2022-08-08T06:08:02.523Z,18.04
2022-08-08T06:10:34.893Z,18.15
2022-08-08T06:13:08.567Z,18.13
2022-08-08T06:15:50.575Z,18.22
2022-08-08T06:18:28.343Z,18.29
2022-08-08T06:21:03.617Z,18.33
2022-08-08T06:23:49.019Z,18.30
2022-08-08T06:26:35.927Z,18.36
2022-08-08T06:29:48.810Z,18.38
2022-08-08T06:32:10.445Z,18.36
2022-08-08T06:34:56.334Z,18.56
2022-08-08T06:37:44.494Z,18.65
2022-08-08T06:40:16.870Z,18.76
2022-08-08T06:42:55.880Z,18.82
2022-08-08T06:45:33.903Z,18.82
2022-08-08T06:48:04.536Z,18.89
2022-08-08T06:50:38.682Z,18.91
2022-08-08T06:53:17.241Z,19.02
2022-08-08T06:56:02.835Z,18.93
2022-08-08T06:58:35.264Z,19.05
2022-08-08T07:01:11.722Z,19.19
2022-08-08T07:04:36.819Z,19.15
2022-08-08T07:06:57.517Z,19.12
2022-08-08T07:09:45.206Z,19.02
2022-08-08T07:12:41.236Z,19.17
2022-08-08T07:15:31.887Z,19.22
2022-08-08T07:18:35.621Z,19.41
2022-08-08T07:21:05.729Z,19.41
2022-08-08T07:24:01.960Z,19.63
2022-08-08T07:26:41.253Z,19.66
2022-08-08T07:29:58.776Z,19.81
2022-08-08T07:32:03.216Z,20.16
2022-08-08T07:34:32.408Z,20.44
2022-08-08T07:37:11.633Z,20.37
2022-08-08T07:39:45.636Z,20.77
2022-08-08T07:42:33.215Z,20.69
2022-08-08T07:45:02.563Z,20.97
2022-08-08T07:47:38.827Z,21.02
2022-08-08T07:50:10.758Z,21.34
2022-08-08T07:52:44.456Z,21.64
2022-08-08T07:55:23.417Z,22.03
2022-08-08T07:58:14.724Z,22.25
2022-08-08T08:00:47.585Z,22.38
2022-08-08T08:03:28.234Z,22.35
2022-08-08T08:05:59.761Z,22.31
2022-08-08T08:08:50.123Z,23.05
2022-08-08T08:11:38.054Z,22.99
2022-08-08T08:14:19.350Z,23.15
2022-08-08T08:16:50.607Z,23.22
2022-08-08T08:19:26.843Z,23.61
2022-08-08T08:22:02.409Z,23.21
2022-08-08T08:24:42.905Z,23.53
2022-08-08T08:27:14.794Z,24.13
2022-08-08T08:29:51.955Z,24.17
2022-08-08T08:32:31.518Z,24.18
2022-08-08T08:35:06.577Z,24.51
2022-08-08T08:37:52.996Z,24.08
2022-08-08T08:40:25.451Z,24.19
2022-08-08T08:42:57.039Z,23.96
2022-08-08T08:45:27.341Z,23.89
2022-08-08T08:48:01.450Z,24.31
2022-08-08T08:50:41.012Z,24.19
2022-08-08T08:53:55.195Z,24.45
2022-08-08T08:56:13.085Z,24.79
2022-08-08T08:58:46.954Z,25.08
2022-08-08T09:01:25.332Z,25.52
2022-08-08T09:04:00.710Z,25.18
2022-08-08T09:06:40.514Z,24.81
2022-08-08T09:09:35.314Z,25.51
2022-08-08T09:12:13.074Z,26.15
2022-08-08T09:14:47.658Z,25.41
2022-08-08T09:17:41.124Z,25.19
2022-08-08T09:22:02.281Z,25.08
2022-08-08T09:23:04.376Z,25.71
2022-08-08T09:25:58.462Z,25.78
2022-08-08T09:28:37.350Z,25.97
2022-08-08T09:31:12.302Z,26.34
2022-08-08T09:34:14.686Z,26.60
2022-08-08T09:36:40.184Z,26.51
2022-08-08T09:39:22.556Z,26.13
2022-08-08T09:42:19.875Z,26.50
2022-08-08T09:45:03.715Z,26.03
2022-08-08T09:48:04.895Z,25.97
2022-08-08T09:50:28.034Z,25.79
2022-08-08T09:53:02.197Z,25.93
2022-08-08T09:56:03.774Z,26.58
2022-08-08T09:58:40.485Z,26.35
2022-08-08T10:01:14.986Z,26.31
2022-08-08T10:04:02.338Z,25.94
2022-08-08T10:06:42.255Z,25.60
2022-08-08T10:09:13.427Z,26.19
2022-08-08T10:12:27.004Z,25.82
2022-08-08T10:14:39.572Z,26.20
2022-08-08T10:17:56.789Z,26.57
2022-08-08T10:20:17.084Z,27.05
2022-08-08T10:22:55.121Z,27.30
2022-08-08T10:25:25.786Z,26.70
2022-08-08T10:28:08.170Z,26.71
2022-08-08T10:30:59.913Z,26.44
2022-08-08T10:33:38.540Z,27.01
2022-08-08T10:36:26.076Z,27.23
2022-08-08T10:39:03.643Z,27.33
2022-08-08T10:41:58.916Z,27.25
2022-08-08T10:44:30.651Z,26.82
2022-08-08T10:47:10.022Z,27.34
2022-08-08T10:50:02.120Z,27.36
2022-08-08T10:52:33.218Z,27.68
2022-08-08T10:55:05.246Z,27.61
2022-08-08T10:57:45.048Z,27.66
2022-08-08T11:00:23.327Z,28.10
2022-08-08T11:02:54.310Z,27.94
2022-08-08T11:05:24.165Z,28.00
2022-08-08T11:08:31.362Z,27.97
2022-08-08T11:10:43.598Z,28.06
2022-08-08T11:13:29.663Z,28.36
2022-08-08T11:16:07.481Z,28.33
2022-08-08T11:18:37.781Z,28.50
2022-08-08T11:21:10.316Z,28.62
2022-08-08T11:24:02.139Z,27.94
2022-08-08T11:26:32.602Z,27.99
2022-08-08T11:29:04.450Z,28.42
2022-08-08T11:31:43.162Z,28.42
2022-08-08T11:34:24.516Z,28.83
2022-08-08T11:37:15.266Z,28.53
2022-08-08T11:39:57.143Z,28.96
2022-08-08T11:42:30.878Z,28.08
2022-08-08T11:45:00.539Z,28.80
2022-08-08T11:47:39.690Z,29.04
2022-08-08T11:50:23.141Z,29.05
2022-08-08T11:52:54.491Z,28.33
2022-08-08T11:55:26.756Z,28.10
2022-08-08T11:58:14.854Z,29.07
2022-08-08T12:00:48.047Z,28.90
2022-08-08T12:03:22.201Z,29.36
2022-08-08T12:05:52.806Z,29.70
2022-08-08T12:08:33.652Z,30.55
2022-08-08T12:11:04.669Z,30.30
2022-08-08T12:14:02.989Z,30.19
2022-08-08T12:16:30.194Z,29.90
2022-08-08T12:19:05.697Z,30.11
2022-08-08T12:22:00.318Z,30.66
2022-08-08T12:24:27.887Z,31.06
2022-08-08T12:26:57.066Z,31.14
2022-08-08T12:29:40.622Z,31.18
2022-08-08T12:32:13.562Z,31.24
2022-08-08T12:34:53.856Z,31.68
2022-08-08T12:37:41.586Z,32.14
2022-08-08T12:40:22.897Z,32.08
2022-08-08T12:42:53.733Z,31.28
2022-08-08T12:46:00.014Z,31.56
2022-08-08T12:48:36.905Z,31.97
2022-08-08T12:51:11.330Z,31.88
2022-08-08T12:53:58.632Z,31.58
2022-08-08T12:56:35.499Z,30.70
2022-08-08T12:59:15.334Z,30.71
2022-08-08T13:01:50.330Z,30.36
2022-08-08T13:04:24.974Z,29.72
2022-08-08T13:06:55.786Z,29.57
2022-08-08T13:09:57.454Z,29.51
2022-08-08T13:12:30.284Z,29.36
2022-08-08T13:15:01.113Z,29.24
2022-08-08T13:18:08.671Z,29.23
2022-08-08T13:20:21.848Z,29.43
2022-08-08T13:22:51.608Z,29.15
2022-08-08T13:25:27.809Z,28.72
2022-08-08T13:28:00.584Z,28.77
2022-08-08T13:30:29.362Z,28.46
2022-08-08T13:32:59.299Z,28.62
2022-08-08T13:35:29.596Z,28.75
2022-08-08T13:38:08.523Z,28.36
2022-08-08T13:40:41.423Z,28.13
2022-08-08T13:43:15.844Z,28.13
2022-08-08T13:45:47.483Z,28.12
2022-08-08T13:48:19.689Z,27.84
2022-08-08T13:50:57.863Z,27.91
2022-08-08T13:53:53.365Z,27.90
2022-08-08T13:56:31.763Z,27.92
2022-08-08T13:59:01.258Z,27.88
2022-08-08T14:01:42.072Z,27.77
2022-08-08T14:04:22.491Z,27.65
2022-08-08T14:06:58.860Z,27.50
2022-08-08T14:10:05.409Z,27.57
2022-08-08T14:12:28.063Z,27.63
2022-08-08T14:14:58.939Z,27.81
2022-08-08T14:17:57.846Z,27.82
2022-08-08T14:20:56.989Z,27.90
2022-08-08T14:23:10.378Z,28.02
2022-08-08T14:25:54.078Z,27.96
2022-08-08T14:28:29.011Z,27.78
2022-08-08T14:31:09.075Z,27.75
2022-08-08T14:33:39.162Z,27.87
2022-08-08T14:36:11.468Z,27.68
2022-08-08T14:38:52.733Z,27.73
2022-08-08T14:41:53.503Z,28.00
2022-08-08T14:44:22.027Z,27.84
2022-08-08T14:47:01.322Z,27.61
2022-08-08T14:49:37.775Z,27.59
2022-08-08T14:52:23.862Z,27.45
2022-08-08T14:54:51.911Z,27.41
2022-08-08T14:57:24.173Z,27.63
2022-08-08T15:00:11.487Z,27.65
2022-08-08T15:02:58.988Z,27.72
2022-08-08T15:05:52.256Z,27.45
2022-08-08T15:08:35.621Z,27.52
2022-08-08T15:11:09.288Z,27.57
2022-08-08T15:14:01.936Z,27.33
2022-08-08T15:16:34.280Z,27.39
2022-08-08T15:19:05.211Z,27.36
2022-08-08T15:21:37.936Z,27.32
2022-08-08T15:24:16.098Z,27.43
2022-08-08T15:26:52.501Z,27.25
2022-08-08T15:29:22.461Z,27.28
2022-08-08T15:32:18.158Z,27.33
2022-08-08T15:34:42.150Z,27.33
2022-08-08T15:37:10.778Z,27.17
2022-08-08T15:39:41.372Z,27.23
2022-08-08T15:42:17.837Z,27.27
2022-08-08T15:44:58.706Z,27.07
2022-08-08T15:47:26.811Z,27.27
2022-08-08T15:49:56.472Z,27.26
2022-08-08T15:52:25.286Z,27.06
2022-08-08T15:54:54.707Z,27.18
2022-08-08T15:57:23.582Z,27.12
2022-08-08T16:00:25.501Z,27.04
2022-08-08T16:02:44.130Z,26.93
2022-08-08T16:05:21.115Z,26.95
2022-08-08T16:07:51.356Z,26.84
2022-08-08T16:13:14.551Z,26.76
2022-08-08T16:13:29.936Z,26.93
2022-08-08T16:16:09.652Z,26.86
2022-08-08T16:18:57.432Z,26.68
2022-08-08T16:21:33.293Z,26.68
2022-08-08T16:24:02.950Z,26.70
2022-08-08T16:26:35.303Z,26.71
2022-08-08T16:29:07.880Z,26.69
2022-08-08T16:31:37.347Z,26.69
2022-08-08T16:34:05.938Z,26.70
2022-08-08T16:36:36.492Z,26.71
2022-08-08T16:39:09.800Z,26.83
2022-08-08T16:41:50.969Z,26.86
2022-08-08T16:44:28.065Z,26.73
2022-08-08T16:47:16.930Z,26.72
2022-08-08T16:49:47.835Z,26.76
2022-08-08T16:55:22.449Z,27.03
2022-08-08T16:55:42.565Z,27.30
2022-08-08T16:58:14.085Z,27.38
2022-08-08T17:00:48.861Z,27.64
2022-08-08T17:03:25.016Z,27.89
2022-08-08T17:06:36.823Z,27.72
2022-08-08T17:08:56.522Z,27.90
2022-08-08T17:11:28.339Z,28.24
2022-08-08T17:14:19.078Z,28.02
2022-08-08T17:16:57.348Z,27.85
2022-08-08T17:19:29.020Z,27.90
2022-08-08T17:22:01.359Z,27.94
2022-08-08T17:24:33.174Z,27.73
2022-08-08T17:27:05.963Z,28.00
2022-08-08T17:29:36.212Z,27.85
2022-08-08T17:32:07.938Z,27.51
2022-08-08T17:34:53.943Z,27.45
2022-08-08T17:37:27.638Z,27.69
2022-08-08T17:40:05.683Z,26.83
2022-08-08T17:42:41.682Z,26.30
2022-08-08T17:45:22.702Z,26.14
2022-08-08T17:47:54.168Z,26.46
2022-08-08T17:50:23.729Z,26.05
2022-08-08T17:52:52.730Z,25.73
2022-08-08T17:56:05.612Z,25.35
2022-08-08T17:58:11.789Z,25.57
2022-08-08T18:00:41.543Z,25.30
2022-08-08T18:03:13.272Z,25.04
2022-08-08T18:05:47.912Z,25.16
2022-08-08T18:08:38.168Z,24.74
2022-08-08T18:11:08.398Z,24.80
2022-08-08T18:13:41.663Z,24.28
2022-08-08T18:16:11.127Z,24.29
2022-08-08T18:18:42.905Z,24.19
2022-08-08T18:21:35.355Z,24.12
2022-08-08T18:24:02.541Z,24.13
2022-08-08T18:26:33.317Z,24.09
2022-08-08T18:29:06.050Z,24.01
2022-08-08T18:31:34.265Z,23.88
2022-08-08T18:34:11.484Z,23.80
2022-08-08T18:36:54.911Z,23.85
2022-08-08T18:39:28.541Z,23.60
2022-08-08T18:42:03.019Z,23.40
2022-08-08T18:44:34.537Z,23.28
2022-08-08T18:47:03.049Z,23.27
2022-08-08T18:49:57.263Z,23.27
2022-08-08T18:52:22.802Z,23.24
2022-08-08T18:55:01.039Z,23.42
2022-08-08T18:57:44.821Z,22.92
2022-08-08T19:00:20.622Z,23.00
2022-08-08T19:02:55.191Z,22.80
2022-08-08T19:05:45.470Z,22.69
2022-08-08T19:08:25.429Z,22.64
2022-08-08T19:11:02.179Z,22.79
2022-08-08T19:13:53.730Z,22.65
2022-08-08T19:16:28.411Z,22.56
2022-08-08T19:19:03.210Z,22.50
2022-08-08T19:21:32.913Z,22.30
2022-08-08T19:24:05.538Z,22.39
2022-08-08T19:26:35.629Z,22.28
2022-08-08T19:29:08.276Z,22.34
2022-08-08T19:31:39.137Z,22.13
2022-08-08T19:34:36.379Z,22.26
2022-08-08T19:37:03.637Z,22.06
2022-08-08T19:39:35.163Z,22.04
2022-08-08T19:42:06.637Z,22.06
2022-08-08T19:44:45.338Z,21.97
2022-08-08T19:47:16.238Z,21.77
2022-08-08T19:49:59.576Z,21.78
2022-08-08T19:52:34.299Z,21.61
2022-08-08T19:55:05.106Z,21.57
2022-08-08T19:57:35.614Z,21.48
2022-08-08T20:00:11.407Z,21.30
2022-08-08T20:02:57.266Z,21.42
2022-08-08T20:06:14.972Z,21.32
2022-08-08T20:08:30.274Z,21.19
2022-08-08T20:11:01.148Z,21.16
2022-08-08T20:14:32.011Z,21.19
2022-08-08T20:16:20.266Z,21.33
2022-08-08T20:18:53.909Z,21.11
2022-08-08T20:21:25.458Z,21.25
2022-08-08T20:23:58.123Z,21.14
2022-08-08T20:26:33.768Z,21.22
2022-08-08T20:29:03.537Z,21.19
2022-08-08T20:31:47.118Z,21.16
2022-08-08T20:34:30.629Z,21.04
2022-08-08T20:37:00.890Z,21.09
2022-08-08T20:39:39.742Z,20.89
2022-08-08T20:42:23.684Z,20.99
2022-08-08T20:44:58.222Z,20.86
2022-08-08T20:47:36.195Z,20.87
2022-08-08T20:50:09.927Z,20.77
2022-08-08T20:52:39.452Z,20.76
2022-08-08T20:55:16.205Z,20.47
2022-08-08T20:57:54.373Z,20.56
2022-08-08T21:00:26.671Z,20.65
2022-08-08T21:02:56.320Z,20.71
2022-08-08T21:05:31.844Z,20.61
2022-08-08T21:08:33.715Z,20.60
2022-08-08T21:10:50.094Z,20.44
2022-08-08T21:13:18.230Z,20.51
2022-08-08T21:16:05.586Z,20.47
2022-08-08T21:18:35.882Z,20.44
2022-08-08T21:21:20.675Z,20.37
2022-08-08T21:24:03.870Z,20.36
2022-08-08T21:26:35.401Z,20.42
2022-08-08T21:29:03.466Z,20.21
2022-08-08T21:31:53.219Z,20.34
2022-08-08T21:34:21.300Z,20.41
2022-08-08T21:36:53.027Z,20.32
2022-08-08T21:39:41.327Z,20.33
2022-08-08T21:42:10.127Z,20.11
2022-08-08T21:44:38.917Z,20.17
2022-08-08T21:48:20.238Z,20.05
2022-08-08T21:50:20.374Z,20.08
2022-08-08T21:54:31.914Z,20.00
2022-08-08T21:56:24.492Z,20.02
2022-08-08T21:58:37.516Z,20.00
2022-08-08T22:01:06.397Z,20.01
2022-08-08T22:03:54.462Z,19.94
2022-08-08T22:06:28.736Z,19.87
2022-08-08T22:09:02.725Z,19.85
2022-08-08T22:11:51.187Z,19.91
2022-08-08T22:14:26.845Z,19.88
2022-08-08T22:16:57.428Z,19.89
2022-08-08T22:20:12.776Z,19.89
2022-08-08T22:22:27.722Z,19.86
2022-08-08T22:24:58.363Z,19.88
2022-08-08T22:27:38.947Z,19.96
2022-08-08T22:30:29.659Z,19.95
2022-08-08T22:32:58.407Z,19.83
2022-08-08T22:36:05.545Z,19.92
2022-08-08T22:38:48.082Z,19.90
2022-08-08T22:41:23.257Z,19.78
2022-08-08T22:44:01.865Z,19.77
2022-08-08T22:46:33.064Z,19.86
2022-08-08T22:49:01.320Z,19.85
2022-08-08T22:51:34.798Z,19.79
2022-08-08T22:54:30.624Z,19.81
2022-08-08T22:56:59.769Z,19.79
2022-08-08T22:59:36.281Z,19.74
2022-08-08T23:02:19.614Z,19.76
2022-08-08T23:04:57.921Z,19.77
2022-08-08T23:07:56.820Z,19.75
2022-08-08T23:10:21.628Z,19.74
2022-08-08T23:12:53.682Z,19.70
2022-08-08T23:16:41.055Z,19.69
2022-08-08T23:18:11.527Z,19.63
2022-08-08T23:20:40.838Z,19.61
2022-08-08T23:23:11.671Z,19.59
2022-08-08T23:25:48.464Z,19.54
2022-08-08T23:28:19.135Z,19.53
2022-08-08T23:30:47.980Z,19.51
2022-08-08T23:33:21.150Z,19.45
2022-08-08T23:36:08.537Z,19.46
2022-08-08T23:38:41.841Z,19.40
2022-08-08T23:41:22.920Z,19.45
2022-08-08T23:43:56.418Z,19.43
2022-08-08T23:49:06.770Z,19.47
2022-08-08T23:49:15.213Z,19.35
2022-08-08T23:52:04.794Z,19.31
2022-08-08T23:54:42.159Z,19.24
2022-08-08T23:57:26.374Z,19.17
